Time;durP1;ratioP1;P1;durP2;ratioP2;P2;SDS_P1;SDS_P2;PMS_P1;PMS_P2;Temp;Humidity;BMP_temperature;BMP_pressure;BME280_temperature;BME280_humidity;BME280_pressure;Samples;Min_cycle;Max_cycle;Signal;HPM_P1;HPM_P2
2022/08/10 00:01:20;;;;;;;11.20;5.57;;;28.70;92.80;;;;;;5106285;28;20041;-74
2022/08/10 00:03:47;;;;;;;9.88;5.43;;;28.70;92.90;;;;;;5073214;28;20402;-74
2022/08/10 00:06:15;;;;;;;7.45;4.95;;;28.70;93.00;;;;;;5074962;28;20037;-74
2022/08/10 00:08:43;;;;;;;7.82;4.57;;;28.70;93.10;;;;;;5073994;28;20052;-74
2022/08/10 00:11:10;;;;;;;11.27;5.32;;;28.70;93.20;;;;;;5107540;28;20036;-73
2022/08/10 00:13:38;;;;;;;18.00;4.93;;;28.70;93.30;;;;;;5074829;28;20059;-75
2022/08/10 00:16:06;;;;;;;8.85;4.95;;;28.70;93.40;;;;;;5074619;28;20045;-74
2022/08/10 00:18:34;;;;;;;7.93;4.53;;;28.70;93.60;;;;;;5090482;28;20055;-73
2022/08/10 00:21:09;;;;;;;11.18;5.32;;;28.70;93.70;;;;;;5073542;28;20047;-73
2022/08/10 00:23:37;;;;;;;7.60;5.25;;;28.70;93.90;;;;;;5090238;28;20055;-73
2022/08/10 00:26:06;;;;;;;7.85;4.63;;;28.60;94.00;;;;;;5073518;28;20060;-74
2022/08/10 00:28:34;;;;;;;7.40;4.07;;;28.60;94.20;;;;;;5089935;28;20131;-74
2022/08/10 00:31:01;;;;;;;8.43;4.38;;;28.60;94.40;;;;;;5073285;28;20553;-74
2022/08/10 00:33:29;;;;;;;8.73;4.82;;;28.60;94.60;;;;;;5071980;28;20098;-74
2022/08/10 00:35:56;;;;;;;7.03;4.13;;;28.60;94.80;;;;;;5074071;28;20094;-74
2022/08/10 00:38:24;;;;;;;14.27;6.22;;;28.60;95.00;;;;;;5074287;28;20053;-74
2022/08/10 00:40:51;;;;;;;10.50;4.65;;;28.60;95.20;;;;;;5106709;28;20058;-74
2022/08/10 00:43:19;;;;;;;13.68;5.35;;;28.50;95.30;;;;;;5074206;28;20037;-74
2022/08/10 00:45:47;;;;;;;11.65;5.32;;;28.50;95.50;;;;;;5074296;28;20044;-74
2022/08/10 00:48:14;;;;;;;14.52;4.60;;;28.50;95.80;;;;;;5056689;28;20055;-74
2022/08/10 00:50:42;;;;;;;9.10;4.90;;;28.50;95.90;;;;;;5106959;28;20054;-74
2022/08/10 00:53:09;;;;;;;11.57;6.43;;;28.50;95.90;;;;;;5074255;28;20041;-74
2022/08/10 00:55:37;;;;;;;9.77;5.22;;;28.50;95.90;;;;;;5072824;28;20563;-74
2022/08/10 00:58:07;;;;;;;9.10;5.43;;;28.50;96.00;;;;;;5072988;28;20394;-74
2022/08/10 01:00:34;;;;;;;8.65;5.47;;;28.50;96.10;;;;;;5056351;28;20040;-74
2022/08/10 01:03:01;;;;;;;7.32;5.00;;;28.50;96.10;;;;;;5106064;28;20048;-74
2022/08/10 01:05:29;;;;;;;9.65;4.68;;;28.50;96.10;;;;;;5106456;28;20127;-74
2022/08/10 01:08:42;;;;;;;8.35;4.95;;;28.50;96.20;;;;;;5072864;28;20053;-74
2022/08/10 01:11:42;;;;;;;6.75;5.13;;;28.50;96.20;;;;;;5106007;28;20468;-74
2022/08/10 01:14:53;;;;;;;9.57;4.43;;;28.60;96.30;;;;;;5073880;28;20569;-74
2022/08/10 01:17:34;;;;;;;8.75;4.95;;;28.50;96.20;;;;;;5072518;28;20490;-74
2022/08/10 01:20:11;;;;;;;8.18;5.88;;;28.50;96.10;;;;;;5087399;28;20429;-74
2022/08/10 01:22:54;;;;;;;10.02;5.15;;;28.40;96.00;;;;;;5055785;28;20418;-74
2022/08/10 01:25:42;;;;;;;10.15;4.45;;;28.40;96.10;;;;;;5106375;28;20492;-74
2022/08/10 01:28:31;;;;;;;11.30;5.30;;;28.40;96.30;;;;;;5072370;28;20049;-74
2022/08/10 01:31:01;;;;;;;10.32;5.22;;;28.40;96.30;;;;;;5073812;28;20041;-74
2022/08/10 01:33:34;;;;;;;7.05;4.40;;;28.40;96.40;;;;;;5073637;28;20132;-74
2022/08/10 01:36:15;;;;;;;10.05;5.15;;;28.40;96.50;;;;;;5072341;28;20032;-74
2022/08/10 01:38:46;;;;;;;7.57;5.22;;;28.40;96.50;;;;;;5073400;28;20131;-74
2022/08/10 01:41:28;;;;;;;8.43;3.92;;;28.40;96.50;;;;;;5105301;28;20068;-74
2022/08/10 01:44:02;;;;;;;12.27;5.47;;;28.40;96.50;;;;;;5072301;28;20036;-74
2022/08/10 01:46:32;;;;;;;8.07;4.65;;;28.40;96.50;;;;;;5072624;28;20056;-74
2022/08/10 01:49:03;;;;;;;7.50;4.45;;;28.40;96.40;;;;;;5106183;28;20505;-74
2022/08/10 01:52:04;;;;;;;7.30;5.10;;;28.40;96.40;;;;;;5073614;28;20043;-74
2022/08/10 01:54:33;;;;;;;9.13;4.30;;;28.40;96.40;;;;;;5083005;28;20144;-74
2022/08/10 01:57:02;;;;;;;7.43;4.57;;;28.40;96.50;;;;;;5072081;28;20037;-74
2022/08/10 01:59:35;;;;;;;6.75;4.22;;;28.30;96.50;;;;;;5055638;28;20060;-74
2022/08/10 02:02:10;;;;;;;6.57;4.05;;;28.40;96.60;;;;;;5088989;28;20087;-74
2022/08/10 02:04:42;;;;;;;10.35;4.72;;;28.40;96.60;;;;;;5072127;28;20164;-74
2022/08/10 02:07:15;;;;;;;10.98;4.82;;;28.40;96.60;;;;;;5071301;28;20394;-74
2022/08/10 02:09:47;;;;;;;6.93;4.18;;;28.30;96.60;;;;;;5072086;28;20535;-74
2022/08/10 02:12:19;;;;;;;6.80;4.57;;;28.30;96.70;;;;;;5055706;28;20051;-74
2022/08/10 02:14:53;;;;;;;7.80;4.75;;;28.30;96.70;;;;;;5072394;28;20040;-74
2022/08/10 02:17:54;;;;;;;8.93;4.65;;;28.20;96.80;;;;;;5088974;28;20402;-74
2022/08/10 02:20:24;;;;;;;5.60;3.97;;;28.30;96.80;;;;;;5072306;28;20053;-74
2022/08/10 02:22:59;;;;;;;9.02;4.32;;;28.30;96.90;;;;;;5105416;28;20068;-74
2022/08/10 02:25:29;;;;;;;10.85;4.25;;;28.20;96.90;;;;;;5105409;28;20064;-74
2022/08/10 02:27:58;;;;;;;11.10;4.53;;;28.20;96.90;;;;;;5054964;28;20106;-74
2022/08/10 02:30:28;;;;;;;10.63;4.07;;;28.20;97.00;;;;;;5054932;28;20139;-74
2022/08/10 02:32:57;;;;;;;9.85;4.75;;;28.20;97.00;;;;;;5072245;28;20044;-74
2022/08/10 02:35:26;;;;;;;6.13;3.95;;;28.20;97.10;;;;;;5088508;28;20063;-74
2022/08/10 02:38:01;;;;;;;6.78;4.53;;;28.20;97.10;;;;;;5055242;28;20045;-74
2022/08/10 02:40:31;;;;;;;15.35;5.88;;;28.20;97.00;;;;;;5073046;28;20065;-74
2022/08/10 02:43:22;;;;;;;9.55;4.70;;;28.20;97.10;;;;;;5054246;28;20094;-74
2022/08/10 02:46:13;;;;;;;7.00;4.10;;;28.20;97.20;;;;;;5071563;28;20106;-74
2022/08/10 02:48:47;;;;;;;14.13;5.25;;;28.20;97.20;;;;;;5072798;28;20410;-74
2022/08/10 02:51:24;;;;;;;7.47;4.82;;;28.20;97.20;;;;;;5071782;28;20150;-74
2022/08/10 02:54:00;;;;;;;11.05;4.78;;;28.20;97.20;;;;;;5074232;28;20098;-74
2022/08/10 02:56:40;;;;;;;8.57;4.88;;;28.10;97.10;;;;;;5058881;28;20505;-74
2022/08/10 02:59:19;;;;;;;8.55;4.78;;;28.10;97.20;;;;;;5075157;28;20094;-74
2022/08/10 03:01:49;;;;;;;7.07;4.40;;;28.10;97.20;;;;;;5067943;28;20437;-74
2022/08/10 03:04:30;;;;;;;5.70;3.88;;;28.10;97.10;;;;;;5074943;28;20548;-74
2022/08/10 03:07:02;;;;;;;8.77;4.47;;;28.10;97.20;;;;;;5070536;28;20049;-74
2022/08/10 03:09:34;;;;;;;8.88;4.60;;;28.10;97.10;;;;;;5056375;28;20110;-74
2022/08/10 03:12:05;;;;;;;7.03;4.07;;;28.10;97.10;;;;;;5071454;28;20073;-74
2022/08/10 03:14:36;;;;;;;6.53;4.38;;;28.10;97.10;;;;;;5071523;28;20041;-74
2022/08/10 03:17:05;;;;;;;6.57;4.45;;;28.20;97.10;;;;;;5071529;28;20090;-74
2022/08/10 03:19:36;;;;;;;7.93;4.35;;;28.20;97.00;;;;;;5054799;28;20037;-74
2022/08/10 03:22:04;;;;;;;7.43;4.43;;;28.20;97.00;;;;;;5054972;28;20064;-74
2022/08/10 03:24:33;;;;;;;10.35;4.50;;;28.20;96.90;;;;;;5054631;28;20047;-74
2022/08/10 03:27:02;;;;;;;7.47;4.60;;;28.20;96.90;;;;;;5037906;28;20458;-74
2022/08/10 03:29:30;;;;;;;9.43;3.88;;;28.20;96.90;;;;;;5071314;28;20063;-74
2022/08/10 03:32:01;;;;;;;7.03;4.10;;;28.20;96.80;;;;;;5055864;28;20039;-74
2022/08/10 03:34:31;;;;;;;6.93;4.20;;;28.20;96.80;;;;;;5088376;28;20041;-74
2022/08/10 03:36:59;;;;;;;5.95;4.75;;;28.20;96.80;;;;;;5037714;28;20049;-74
2022/08/10 03:39:27;;;;;;;5.45;3.65;;;28.10;96.80;;;;;;5037466;28;20138;-74
2022/08/10 03:41:59;;;;;;;9.38;5.00;;;28.10;96.90;;;;;;5071051;28;20045;-74
2022/08/10 03:44:30;;;;;;;9.00;4.60;;;28.00;97.00;;;;;;5054077;28;20045;-74
2022/08/10 03:47:04;;;;;;;6.68;4.60;;;28.00;97.00;;;;;;5037748;28;20056;-74
2022/08/10 03:49:35;;;;;;;7.18;4.60;;;28.00;97.10;;;;;;5070496;28;20045;-74
2022/08/10 03:52:05;;;;;;;8.95;4.20;;;27.90;97.10;;;;;;5070966;28;20037;-74
2022/08/10 03:54:33;;;;;;;7.65;4.57;;;27.90;97.20;;;;;;5055413;28;20045;-74
2022/08/10 03:57:02;;;;;;;7.25;4.75;;;27.90;97.20;;;;;;5070708;28;20045;-74
2022/08/10 03:59:35;;;;;;;12.90;5.38;;;27.90;97.30;;;;;;5056508;28;20053;-74
2022/08/10 04:02:07;;;;;;;8.95;4.72;;;27.90;97.30;;;;;;5054868;28;20037;-74
2022/08/10 04:04:34;;;;;;;8.80;4.15;;;27.90;97.30;;;;;;5054830;28;20430;-74
2022/08/10 04:07:03;;;;;;;7.18;4.22;;;27.90;97.30;;;;;;5054031;28;20036;-74
2022/08/10 04:09:33;;;;;;;8.55;4.63;;;28.00;97.20;;;;;;5054820;28;20087;-74
2022/08/10 04:12:01;;;;;;;8.88;4.40;;;27.90;97.20;;;;;;5070325;28;20082;-74
2022/08/10 04:14:28;;;;;;;8.27;4.53;;;27.90;97.20;;;;;;5086704;28;20044;-74
2022/08/10 04:16:56;;;;;;;5.45;3.63;;;27.90;97.30;;;;;;5069655;28;20049;-74
2022/08/10 04:19:25;;;;;;;7.68;3.85;;;28.00;97.20;;;;;;5054714;28;20072;-74
2022/08/10 04:22:04;;;;;;;6.40;4.57;;;27.90;97.30;;;;;;5053902;28;20052;-74
2022/08/10 04:24:33;;;;;;;9.30;4.75;;;27.90;97.30;;;;;;5070476;28;20048;-74
2022/08/10 04:27:01;;;;;;;6.93;4.03;;;28.00;97.30;;;;;;5053152;28;20087;-74
2022/08/10 04:29:29;;;;;;;7.20;4.65;;;28.00;97.20;;;;;;5053459;28;20048;-74
2022/08/10 04:31:58;;;;;;;7.35;4.10;;;28.00;97.20;;;;;;5069850;28;20076;-74
2022/08/10 04:34:30;;;;;;;5.97;3.97;;;28.00;97.10;;;;;;5054400;28;20475;-73
2022/08/10 04:37:02;;;;;;;8.68;4.53;;;28.00;97.10;;;;;;5053430;28;20056;-74
2022/08/10 04:39:33;;;;;;;6.78;4.22;;;28.10;97.10;;;;;;5053064;28;20502;-74
2022/08/10 04:42:01;;;;;;;7.40;4.18;;;28.10;97.00;;;;;;5070045;28;20056;-74
2022/08/10 04:44:29;;;;;;;6.45;4.00;;;28.20;96.90;;;;;;5069853;28;20454;-74
2022/08/10 04:46:57;;;;;;;6.68;4.32;;;28.20;96.80;;;;;;5053730;28;20122;-74
2022/08/10 04:49:26;;;;;;;5.28;3.53;;;28.30;96.70;;;;;;5069828;28;20037;-74
2022/08/10 04:51:54;;;;;;;7.70;4.38;;;28.40;96.80;;;;;;5052781;28;20041;-74
2022/08/10 04:54:21;;;;;;;7.85;3.80;;;28.50;96.50;;;;;;5052738;28;20547;-74
2022/08/10 04:56:49;;;;;;;6.15;4.05;;;28.60;96.30;;;;;;5069897;28;20036;-74
2022/08/10 04:59:17;;;;;;;5.18;3.28;;;28.70;96.20;;;;;;5069620;28;20047;-74
2022/08/10 05:01:45;;;;;;;7.13;3.92;;;28.80;96.10;;;;;;5069336;28;20044;-74
2022/08/10 05:04:12;;;;;;;6.18;3.65;;;28.90;95.90;;;;;;5052627;28;20499;-74
2022/08/10 05:06:40;;;;;;;7.05;4.15;;;29.00;95.70;;;;;;5053775;28;20045;-73
2022/08/10 05:09:07;;;;;;;8.15;4.65;;;29.10;95.60;;;;;;5036440;28;20045;-74
2022/08/10 05:11:35;;;;;;;7.25;4.10;;;29.20;95.50;;;;;;5054000;28;20041;-74
2022/08/10 05:14:02;;;;;;;7.15;4.80;;;29.30;95.30;;;;;;5086208;28;20128;-74
2022/08/10 05:16:30;;;;;;;6.32;4.13;;;29.40;95.20;;;;;;5052909;28;20554;-74
2022/08/10 05:18:58;;;;;;;6.10;3.72;;;29.50;95.00;;;;;;5069318;28;20087;-74
2022/08/10 05:21:26;;;;;;;7.78;4.07;;;29.50;94.90;;;;;;5053484;28;20037;-74
2022/08/10 05:23:53;;;;;;;9.38;5.00;;;29.60;94.90;;;;;;5052457;28;20079;-74
2022/08/10 05:26:21;;;;;;;9.15;5.18;;;29.70;94.70;;;;;;5052643;28;20152;-73
2022/08/10 05:28:48;;;;;;;6.80;4.47;;;29.80;94.70;;;;;;5069176;28;20048;-74
2022/08/10 05:31:16;;;;;;;6.13;4.82;;;29.80;94.50;;;;;;5053708;28;20045;-74
2022/08/10 05:33:43;;;;;;;8.65;5.32;;;29.90;94.50;;;;;;5053599;28;20041;-74
2022/08/10 05:36:11;;;;;;;11.13;6.95;;;30.00;94.30;;;;;;5052150;28;20107;-73
2022/08/10 05:38:39;;;;;;;9.38;7.57;;;30.10;94.30;;;;;;5052333;28;20193;-73
2022/08/10 05:41:07;;;;;;;7.97;5.82;;;30.20;94.20;;;;;;5053582;28;20037;-74
2022/08/10 05:43:35;;;;;;;9.77;6.32;;;30.30;94.00;;;;;;5052031;28;20586;-75
2022/08/10 05:46:03;;;;;;;8.15;5.13;;;30.20;94.10;;;;;;5052177;28;20137;-73
2022/08/10 05:48:36;;;;;;;7.32;4.53;;;30.30;94.00;;;;;;5084707;28;20048;-74
2022/08/10 05:51:04;;;;;;;12.90;5.47;;;30.40;93.90;;;;;;5106106;28;20068;-74
2022/08/10 05:53:33;;;;;;;8.25;4.13;;;30.50;93.70;;;;;;5088764;28;20060;-74
2022/08/10 05:56:02;;;;;;;9.30;5.45;;;30.60;93.70;;;;;;5088793;28;20044;-73
2022/08/10 05:58:31;;;;;;;6.03;3.88;;;30.60;93.40;;;;;;5055830;28;20047;-73
2022/08/10 06:01:01;;;;;;;9.88;4.53;;;30.60;93.40;;;;;;5088663;28;20418;-74
2022/08/10 06:03:33;;;;;;;8.77;5.15;;;30.70;93.20;;;;;;5073304;28;20043;-74
2022/08/10 06:06:04;;;;;;;6.20;4.68;;;30.80;93.10;;;;;;5055411;28;20045;-73
2022/08/10 06:08:33;;;;;;;9.35;5.20;;;30.90;92.90;;;;;;5088731;28;20040;-73
2022/08/10 06:11:04;;;;;;;6.88;4.13;;;31.00;92.80;;;;;;5071959;28;20165;-73
2022/08/10 06:16:23;;;;;;;6.78;4.00;;;31.10;92.50;;;;;;5073320;28;20528;-73
2022/08/10 06:18:53;;;;;;;7.70;4.70;;;31.20;92.30;;;;;;5105923;28;20482;-73
2022/08/10 06:21:21;;;;;;;7.22;4.32;;;31.30;92.00;;;;;;5105301;28;20075;-73
2022/08/10 06:23:51;;;;;;;7.03;4.47;;;31.40;92.00;;;;;;5072860;28;20041;-74
2022/08/10 06:26:19;;;;;;;10.27;3.83;;;31.50;91.90;;;;;;5071902;28;20056;-71
2022/08/10 06:29:12;;;;;;;6.40;3.95;;;31.50;91.60;;;;;;5076826;28;20045;-73
2022/08/10 06:31:44;;;;;;;8.52;4.30;;;31.60;91.70;;;;;;5092594;28;20052;-73
2022/08/10 06:34:14;;;;;;;8.50;4.00;;;31.70;91.50;;;;;;5075504;28;20080;-73
2022/08/10 06:36:44;;;;;;;11.63;4.57;;;31.70;91.40;;;;;;5058862;28;20106;-73
2022/08/10 06:39:11;;;;;;;8.75;4.35;;;31.90;91.60;;;;;;5075711;28;20054;-73
2022/08/10 06:42:33;;;;;;;10.27;4.22;;;31.80;91.20;;;;;;5075603;28;20375;-74
2022/08/10 06:45:14;;;;;;;6.25;4.03;;;31.90;91.10;;;;;;5061433;28;20037;-73
2022/08/10 06:48:06;;;;;;;15.65;5.03;;;31.90;91.20;;;;;;5071886;28;20037;-73
2022/08/10 06:50:40;;;;;;;8.57;5.00;;;31.90;91.00;;;;;;5071834;28;20107;-73
2022/08/10 06:53:15;;;;;;;11.27;5.30;;;31.90;91.20;;;;;;5056369;28;20073;-73
2022/08/10 06:55:52;;;;;;;6.50;4.82;;;32.00;91.10;;;;;;5055317;28;20045;-72
2022/08/10 06:58:24;;;;;;;10.80;4.80;;;32.00;91.10;;;;;;5038816;28;20064;-73
2022/08/10 07:00:53;;;;;;;7.82;4.63;;;32.10;91.10;;;;;;5055114;28;20048;-73
2022/08/10 07:03:29;;;;;;;9.23;4.82;;;32.10;91.10;;;;;;5056019;28;20127;-73
2022/08/10 07:06:00;;;;;;;8.30;4.78;;;32.20;91.30;;;;;;5071701;28;20379;-73
2022/08/10 07:08:32;;;;;;;11.13;5.18;;;32.30;91.30;;;;;;5055993;28;20387;-73
2022/08/10 07:11:01;;;;;;;8.00;4.85;;;32.30;91.30;;;;;;5056054;28;20073;-73
2022/08/10 07:13:31;;;;;;;6.25;4.30;;;32.30;91.30;;;;;;5055006;28;20060;-72
2022/08/10 07:16:00;;;;;;;8.55;5.35;;;32.40;91.30;;;;;;5071043;28;20045;-73
2022/08/10 07:18:29;;;;;;;9.63;5.15;;;32.30;91.20;;;;;;5054801;28;20063;-72
2022/08/10 07:21:00;;;;;;;7.93;4.40;;;32.40;91.10;;;;;;5071574;28;20044;-73
2022/08/10 07:23:30;;;;;;;11.43;4.85;;;32.50;91.00;;;;;;5087828;28;20091;-73
2022/08/10 07:25:59;;;;;;;8.23;4.55;;;32.50;91.00;;;;;;5070974;28;20037;-73
2022/08/10 07:28:28;;;;;;;13.25;5.60;;;32.60;90.90;;;;;;5071254;28;20045;-73
2022/08/10 07:30:56;;;;;;;10.98;4.72;;;32.60;90.90;;;;;;5071587;28;20398;-73
2022/08/10 07:33:26;;;;;;;18.88;7.53;;;32.60;90.70;;;;;;5055586;28;20409;-73
2022/08/10 07:35:56;;;;;;;7.47;4.32;;;32.60;90.80;;;;;;5071056;28;20459;-73
2022/08/10 07:38:27;;;;;;;11.65;5.50;;;32.80;90.70;;;;;;5053807;28;20104;-73
2022/08/10 07:40:59;;;;;;;9.30;4.60;;;32.90;90.80;;;;;;5054368;28;20438;-73
2022/08/10 07:43:33;;;;;;;7.38;5.05;;;32.90;90.60;;;;;;5098663;28;20051;-73
2022/08/10 07:46:04;;;;;;;12.75;6.32;;;33.00;90.60;;;;;;5107913;28;20049;-73
2022/08/10 07:48:38;;;;;;;9.65;4.28;;;33.10;90.60;;;;;;5075377;28;20064;-73
2022/08/10 07:51:07;;;;;;;7.97;4.68;;;33.10;90.40;;;;;;5091007;28;20499;-73
2022/08/10 07:53:42;;;;;;;11.18;4.80;;;33.00;90.30;;;;;;5073869;28;20399;-73
2022/08/10 07:56:11;;;;;;;12.93;5.20;;;32.90;90.10;;;;;;5074363;28;20045;-73
2022/08/10 07:58:58;;;;;;;10.68;4.72;;;32.90;90.00;;;;;;5090836;28;20045;-73
2022/08/10 08:01:34;;;;;;;6.30;4.60;;;33.00;90.20;;;;;;5057407;28;20387;-73
2022/08/10 08:04:03;;;;;;;11.18;5.20;;;33.10;90.10;;;;;;5073657;28;20098;-73
2022/08/10 08:06:32;;;;;;;15.15;5.50;;;33.10;90.30;;;;;;5090572;28;20119;-73
2022/08/10 08:09:02;;;;;;;10.25;5.03;;;33.30;90.20;;;;;;5074009;28;20064;-71
2022/08/10 08:11:31;;;;;;;11.50;5.60;;;33.40;89.70;;;;;;5107752;28;20040;-71
2022/08/10 08:14:00;;;;;;;11.55;5.50;;;33.50;89.60;;;;;;5090328;28;20398;-71
2022/08/10 08:16:30;;;;;;;7.57;4.53;;;33.50;89.00;;;;;;5090237;28;20045;-71
2022/08/10 08:18:59;;;;;;;12.88;5.07;;;33.60;88.20;;;;;;5075153;28;20162;-71
2022/08/10 08:21:48;;;;;;;6.95;4.75;;;33.70;88.30;;;;;;5074661;28;20119;-71
2022/08/10 08:24:18;;;;;;;7.30;4.20;;;33.70;88.50;;;;;;5073417;28;20093;-71
2022/08/10 08:26:47;;;;;;;9.38;4.68;;;33.80;88.00;;;;;;5074491;28;20101;-71
2022/08/10 08:29:17;;;;;;;8.10;5.28;;;33.80;87.20;;;;;;5073661;28;20044;-72
2022/08/10 08:31:47;;;;;;;7.95;5.20;;;33.90;85.90;;;;;;5074246;28;20072;-71
2022/08/10 08:34:16;;;;;;;7.72;5.60;;;33.90;85.20;;;;;;5056880;28;20094;-71
2022/08/10 08:36:46;;;;;;;11.15;5.57;;;33.90;84.80;;;;;;5073383;28;20052;-73
2022/08/10 08:39:15;;;;;;;12.00;6.15;;;34.10;83.20;;;;;;5106664;28;20040;-73
2022/08/10 08:42:04;;;;;;;9.63;5.05;;;34.10;81.20;;;;;;5073199;28;20051;-73
2022/08/10 08:45:19;;;;;;;13.60;5.10;;;34.30;79.60;;;;;;5106826;28;20128;-73
2022/08/10 08:47:54;;;;;;;;;;;34.30;78.40;;;;;;5090209;28;20441;-71
2022/08/10 08:50:50;;;;;;;9.45;4.60;;;34.20;78.70;;;;;;5074264;28;19928;-71
2022/08/10 08:53:57;;;;;;;7.45;5.07;;;34.20;76.60;;;;;;5089224;28;20072;-71
2022/08/10 08:56:34;;;;;;;6.18;4.78;;;34.20;76.50;;;;;;5106906;28;20036;-71
2022/08/10 08:59:29;;;;;;;5.93;4.93;;;34.30;74.90;;;;;;5072781;28;20048;-71
2022/08/10 09:02:09;;;;;;;7.47;4.78;;;34.30;74.00;;;;;;5106025;28;20041;-72
2022/08/10 09:04:46;;;;;;;8.63;4.63;;;34.20;71.70;;;;;;5089661;28;20044;-72
2022/08/10 09:07:51;;;;;;;6.00;4.38;;;34.40;71.20;;;;;;5073036;28;20048;-72
2022/08/10 09:10:44;;;;;;;6.60;5.07;;;34.30;71.50;;;;;;5072047;28;20044;-72
2022/08/10 09:13:40;;;;;;;9.50;5.38;;;34.30;69.60;;;;;;5089534;28;20044;-72
2022/08/10 09:16:45;;;;;;;6.82;4.75;;;34.40;69.20;;;;;;5055765;28;20076;-72
2022/08/10 09:19:26;;;;;;;8.63;5.28;;;34.40;68.80;;;;;;5073765;28;20041;-72
2022/08/10 09:22:02;;;;;;;7.80;4.88;;;34.10;68.90;;;;;;5103710;28;20113;-73
2022/08/10 09:25:08;;;;;;;7.78;5.43;;;34.00;68.90;;;;;;5072443;28;20048;-72
2022/08/10 09:27:44;;;;;;;7.60;4.68;;;34.00;68.80;;;;;;5088878;28;20052;-73
2022/08/10 09:30:21;;;;;;;6.30;4.78;;;34.10;69.20;;;;;;5073655;28;20076;-72
2022/08/10 09:32:56;;;;;;;8.43;4.43;;;34.20;69.10;;;;;;5088882;28;20056;-72
2022/08/10 09:35:53;;;;;;;8.13;5.10;;;34.40;70.20;;;;;;5073553;28;20131;-72
2022/08/10 09:38:35;;;;;;;10.45;5.88;;;34.40;69.90;;;;;;5105672;28;20062;-72
2022/08/10 09:41:15;;;;;;;5.22;4.28;;;34.40;70.20;;;;;;5073538;28;20044;-72
2022/08/10 09:44:11;;;;;;;6.30;5.15;;;34.60;71.10;;;;;;5055497;28;20048;-72
2022/08/10 09:46:45;;;;;;;6.53;5.28;;;34.60;72.70;;;;;;5058812;28;20048;-72
2022/08/10 09:49:51;;;;;;;7.40;4.45;;;34.50;73.90;;;;;;5073407;28;20540;-72
2022/08/10 09:52:27;;;;;;;10.40;5.20;;;34.60;73.10;;;;;;5105841;28;20036;-72
2022/08/10 09:55:20;;;;;;;7.88;5.15;;;34.70;72.00;;;;;;5106027;28;20060;-72
2022/08/10 09:58:24;;;;;;;6.07;4.78;;;34.60;70.60;;;;;;5072308;28;20122;-72
2022/08/10 10:01:26;;;;;;;7.05;4.80;;;34.50;72.40;;;;;;5106289;28;20041;-72
2022/08/10 10:04:17;;;;;;;10.45;5.38;;;34.60;72.60;;;;;;5109872;28;20036;-72
2022/08/10 10:06:53;;;;;;;8.32;5.60;;;34.60;72.00;;;;;;5075954;28;20517;-73
2022/08/10 10:09:54;;;;;;;7.97;5.50;;;34.60;72.10;;;;;;5093087;28;20629;-72
2022/08/10 10:12:49;;;;;;;8.00;5.20;;;34.50;72.30;;;;;;5084472;28;20517;-72
2022/08/10 10:15:43;;;;;;;9.10;5.88;;;34.50;72.80;;;;;;5092835;28;20587;-72
2022/08/10 10:18:17;;;;;;;;;;;34.50;73.60;;;;;;5076326;28;20045;-72
2022/08/10 10:20:54;;;;;;;9.02;6.32;;;34.60;72.80;;;;;;5076024;28;19921;-72
2022/08/10 10:23:31;;;;;;;10.02;5.00;;;34.80;72.20;;;;;;5059000;28;20044;-73
2022/08/10 10:26:18;;;;;;;8.10;5.70;;;34.80;72.60;;;;;;5075878;28;20391;-72
2022/08/10 10:28:53;;;;;;;10.30;5.90;;;34.80;72.50;;;;;;5077748;27;20048;-72
2022/08/10 10:32:17;;;;;;;9.50;5.70;;;34.60;72.20;;;;;;5089659;28;20048;-72
2022/08/10 10:35:02;;;;;;;8.90;5.53;;;34.60;72.50;;;;;;5073404;28;20072;-71
2022/08/10 10:37:35;;;;;;;7.13;5.32;;;34.70;71.70;;;;;;5059186;28;20071;-71
2022/08/10 10:40:07;;;;;;;8.85;5.93;;;34.70;71.90;;;;;;5076574;28;20078;-73
2022/08/10 10:42:49;;;;;;;6.80;5.10;;;34.70;72.80;;;;;;5059660;28;20044;-72
2022/08/10 10:45:50;;;;;;;9.52;5.47;;;34.60;72.50;;;;;;5076635;28;20041;-72
2022/08/10 10:48:31;;;;;;;8.50;6.50;;;34.60;73.00;;;;;;5076314;28;20068;-73
2022/08/10 10:51:13;;;;;;;9.57;5.70;;;34.60;73.30;;;;;;5108833;28;20395;-72
2022/08/10 10:54:01;;;;;;;7.38;5.65;;;34.60;73.10;;;;;;5075180;28;20047;-72
2022/08/10 10:56:55;;;;;;;7.68;5.57;;;34.50;73.40;;;;;;5109061;28;20423;-72
2022/08/10 10:59:29;;;;;;;9.52;5.63;;;34.60;73.80;;;;;;5061659;28;20066;-72
2022/08/10 11:02:27;;;;;;;11.65;5.93;;;34.60;74.40;;;;;;5075392;28;20048;-72
2022/08/10 11:05:08;;;;;;;7.05;4.88;;;34.60;74.30;;;;;;5108983;28;20041;-72
2022/08/10 11:07:43;;;;;;;9.15;5.80;;;34.50;74.00;;;;;;5092138;28;20131;-71
2022/08/10 11:10:18;;;;;;;9.40;5.47;;;34.50;73.10;;;;;;5073315;28;20041;-72
2022/08/10 11:12:56;;;;;;;8.63;5.93;;;34.50;73.20;;;;;;5091564;28;20102;-72
2022/08/10 11:15:27;;;;;;;8.35;5.60;;;34.50;72.80;;;;;;5075441;28;20455;-72
2022/08/10 11:18:10;;;;;;;8.40;5.78;;;34.50;72.80;;;;;;5091688;28;20048;-72
2022/08/10 11:20:48;;;;;;;8.05;5.40;;;34.40;73.70;;;;;;5108443;28;20041;-72
2022/08/10 11:23:38;;;;;;;8.23;4.70;;;34.30;73.60;;;;;;5074610;28;20426;-71
2022/08/10 11:26:30;;;;;;;7.85;5.88;;;34.30;73.50;;;;;;5074593;28;20041;-71
2022/08/10 11:29:12;;;;;;;8.35;5.97;;;34.30;72.60;;;;;;5108111;28;20536;-72
2022/08/10 11:32:00;;;;;;;10.88;6.13;;;34.40;73.00;;;;;;5058336;28;20057;-72
2022/08/10 11:35:10;;;;;;;9.75;6.28;;;34.20;73.00;;;;;;5091609;28;20058;-72
2022/08/10 11:38:03;;;;;;;10.70;5.43;;;34.20;73.10;;;;;;5079405;28;20536;-72
2022/08/10 11:40:40;;;;;;;10.05;6.93;;;34.10;72.40;;;;;;5075547;28;20499;-72
2022/08/10 11:43:20;;;;;;;8.52;6.20;;;34.10;73.20;;;;;;5076108;28;20178;-71
2022/08/10 11:45:55;;;;;;;9.50;6.28;;;34.10;72.90;;;;;;5108376;28;20037;-72
2022/08/10 11:48:30;;;;;;;8.80;5.90;;;34.20;73.30;;;;;;5074706;28;20040;-72
2022/08/10 11:51:02;;;;;;;9.45;6.97;;;34.20;73.40;;;;;;5073909;28;20102;-71
2022/08/10 11:53:49;;;;;;;9.25;7.55;;;34.10;72.90;;;;;;5074644;28;20467;-71
2022/08/10 11:56:47;;;;;;;9.95;5.95;;;34.00;73.20;;;;;;5074621;28;20049;-72
2022/08/10 12:02:13;;;;;;;11.27;5.80;;;34.00;73.60;;;;;;5075184;28;20082;-72
2022/08/10 12:04:51;;;;;;;10.20;5.78;;;34.00;73.20;;;;;;5057484;28;20049;-72
2022/08/10 12:07:20;;;;;;;10.48;7.43;;;34.00;73.00;;;;;;5107460;28;20041;-71
2022/08/10 12:09:49;;;;;;;6.93;6.00;;;34.00;73.40;;;;;;5073781;28;20041;-72
2022/08/10 12:12:18;;;;;;;7.75;5.75;;;33.90;73.30;;;;;;5057684;28;20044;-71
2022/08/10 12:14:56;;;;;;;10.93;6.38;;;33.90;73.00;;;;;;5075328;28;20477;-72
2022/08/10 12:17:37;;;;;;;7.97;6.07;;;34.00;73.60;;;;;;5074904;28;20048;-72
2022/08/10 12:20:09;;;;;;;10.50;6.35;;;34.00;74.00;;;;;;5107045;28;20041;-72
2022/08/10 12:22:56;;;;;;;9.77;5.55;;;33.90;73.40;;;;;;5090558;28;20056;-72
2022/08/10 12:25:35;;;;;;;8.63;6.10;;;33.80;72.20;;;;;;5088537;28;20045;-71
2022/08/10 12:28:14;;;;;;;7.32;5.55;;;33.60;72.30;;;;;;5073240;28;20152;-72
2022/08/10 12:30:53;;;;;;;7.85;5.80;;;33.60;73.10;;;;;;5106753;28;20387;-72
2022/08/10 12:33:29;;;;;;;8.13;6.05;;;33.50;73.50;;;;;;5106971;28;20048;-71
2022/08/10 12:36:14;;;;;;;9.07;7.13;;;33.50;73.80;;;;;;5106412;28;20050;-71
2022/08/10 12:38:49;;;;;;;9.43;5.88;;;33.40;73.10;;;;;;5056732;28;20048;-72
2022/08/10 12:41:35;;;;;;;7.65;6.55;;;33.40;72.50;;;;;;5090217;28;20487;-72
2022/08/10 12:44:11;;;;;;;7.20;5.50;;;33.30;73.00;;;;;;5106797;28;20044;-71
2022/08/10 12:46:39;;;;;;;7.90;5.72;;;33.20;73.30;;;;;;5056935;28;20126;-72
2022/08/10 12:49:27;;;;;;;9.73;6.75;;;33.20;73.20;;;;;;5106798;28;20359;-72
2022/08/10 12:52:08;;;;;;;12.07;6.90;;;33.30;74.40;;;;;;5089275;28;20083;-73
2022/08/10 12:54:38;;;;;;;12.38;7.45;;;33.30;75.20;;;;;;5085950;28;20049;-72
2022/08/10 12:57:18;;;;;;;12.27;7.40;;;33.40;76.50;;;;;;5052907;28;20045;-72
2022/08/10 12:59:50;;;;;;;10.82;6.35;;;33.30;76.90;;;;;;5053000;28;20427;-71
2022/08/10 13:02:31;;;;;;;11.73;7.57;;;33.30;76.80;;;;;;5069422;28;20067;-71
2022/08/10 13:05:10;;;;;;;12.57;7.35;;;33.20;77.40;;;;;;5052913;28;20049;-71
2022/08/10 13:07:41;;;;;;;11.90;7.90;;;33.20;77.80;;;;;;5052936;28;20098;-72
2022/08/10 13:10:15;;;;;;;8.60;6.43;;;33.20;77.00;;;;;;5086162;28;20048;-72
2022/08/10 13:12:47;;;;;;;16.13;7.63;;;33.20;77.60;;;;;;5052790;28;20179;-71
2022/08/10 13:15:16;;;;;;;10.13;7.47;;;33.20;77.80;;;;;;5069614;28;20467;-71
2022/08/10 13:17:49;;;;;;;8.55;7.25;;;33.10;77.30;;;;;;5069001;28;20095;-71
2022/08/10 13:20:27;;;;;;;10.63;7.03;;;33.10;77.60;;;;;;5085859;28;20128;-71
2022/08/10 13:23:03;;;;;;;14.07;7.78;;;33.00;77.60;;;;;;5053598;28;20041;-72
2022/08/10 13:25:40;;;;;;;10.45;7.35;;;33.00;78.10;;;;;;5052563;28;20037;-71
2022/08/10 13:28:14;;;;;;;12.63;7.70;;;32.80;76.80;;;;;;5068764;28;20399;-72
2022/08/10 13:30:46;;;;;;;12.00;7.72;;;32.70;77.60;;;;;;5069040;28;20124;-72
2022/08/10 13:33:23;;;;;;;12.52;7.50;;;32.70;78.40;;;;;;5052672;28;20045;-73
2022/08/10 13:35:56;;;;;;;11.70;7.35;;;32.60;76.60;;;;;;5052680;28;20059;-73